Time;durP1;ratioP1;P1;durP2;ratioP2;P2;SDS_P1;SDS_P2;PMS_P1;PMS_P2;Temp;Humidity;BMP_temperature;BMP_pressure;BME280_temperature;BME280_humidity;BME280_pressure;Samples;Min_cycle;Max_cycle;Signal;HPM_P1;HPM_P2
2024/02/27 00:00:09;;;;;;;9.02;1.55;;;;;;;;;;4962812;28;20030;-79
2024/02/27 00:02:38;;;;;;;8.48;1.73;;;;;;;;;;4984691;28;20038;-79
2024/02/27 00:05:04;;;;;;;9.88;3.30;;;;;;;;;;4961188;28;20029;-79
2024/02/27 00:07:32;;;;;;;11.95;3.97;;;;;;;;;;4985690;28;20108;-80
2024/02/27 00:09:59;;;;;;;11.70;3.67;;;;;;;;;;4978535;28;20054;-80
2024/02/27 00:12:25;;;;;;;9.27;3.95;;;;;;;;;;4963774;28;20038;-80
2024/02/27 00:14:53;;;;;;;10.88;5.45;;;;;;;;;;4964661;28;20094;-79
2024/02/27 00:17:22;;;;;;;10.00;4.55;;;;;;;;;;4984612;28;20141;-80
2024/02/27 00:19:51;;;;;;;10.05;3.17;;;;;;;;;;4967429;28;20022;-80
2024/02/27 00:22:18;;;;;;;8.63;2.13;;;;;;;;;;4965165;28;20506;-80
2024/02/27 00:24:45;;;;;;;7.70;1.67;;;;;;;;;;4963684;28;20030;-80
2024/02/27 00:27:12;;;;;;;7.28;1.60;;;;;;;;;;4965517;28;20038;-80
2024/02/27 00:29:40;;;;;;;6.07;1.33;;;;;;;;;;4963743;28;20038;-79
2024/02/27 00:32:07;;;;;;;6.78;1.50;;;;;;;;;;4980683;28;20045;-79
2024/02/27 00:34:35;;;;;;;7.38;1.50;;;;;;;;;;4980596;28;20054;-79
2024/02/27 00:37:01;;;;;;;6.95;1.40;;;;;;;;;;4961321;28;20057;-80
2024/02/27 00:39:28;;;;;;;7.03;1.33;;;;;;;;;;4965093;28;20036;-81
2024/02/27 00:41:57;;;;;;;9.75;1.38;;;;;;;;;;4959502;28;20037;-79
2024/02/27 00:44:24;;;;;;;6.35;1.40;;;;;;;;;;4980714;28;20034;-80
2024/02/27 00:46:51;;;;;;;5.80;1.35;;;;;;;;;;4965814;28;20034;-80
2024/02/27 00:49:18;;;;;;;4.78;1.20;;;;;;;;;;4971911;28;20109;-78
2024/02/27 00:51:44;;;;;;;5.80;1.40;;;;;;;;;;4969236;28;20050;-79
2024/02/27 00:54:12;;;;;;;5.75;1.50;;;;;;;;;;4982876;28;20034;-79
2024/02/27 00:56:39;;;;;;;7.75;1.48;;;;;;;;;;4970469;28;20774;-80
2024/02/27 00:59:05;;;;;;;7.97;1.65;;;;;;;;;;4982232;28;20041;-80
2024/02/27 01:01:32;;;;;;;8.40;1.70;;;;;;;;;;4983566;28;20057;-80
2024/02/27 01:03:58;;;;;;;7.88;1.40;;;;;;;;;;4983549;28;20112;-80
2024/02/27 01:06:24;;;;;;;;;;;;;;;;;;4969971;28;20041;-79
2024/02/27 01:08:51;;;;;;;7.07;1.52;;;;;;;;;;4978443;28;19918;-79
2024/02/27 01:11:22;;;;;;;7.65;1.52;;;;;;;;;;4964203;28;20071;-80
2024/02/27 01:13:56;;;;;;;8.48;1.73;;;;;;;;;;4979865;28;20034;-80
2024/02/27 01:16:23;;;;;;;6.30;1.48;;;;;;;;;;4970030;28;20681;-80
2024/02/27 01:18:50;;;;;;;8.68;1.95;;;;;;;;;;4964217;28;20471;-80
2024/02/27 01:21:17;;;;;;;7.18;1.75;;;;;;;;;;4947189;28;20041;-80
2024/02/27 01:23:44;;;;;;;9.45;2.00;;;;;;;;;;4984623;28;20026;-78
2024/02/27 01:26:13;;;;;;;11.18;3.25;;;;;;;;;;4980386;28;20081;-79
2024/02/27 01:28:39;;;;;;;9.73;2.08;;;;;;;;;;4959988;28;20049;-79
2024/02/27 01:31:07;;;;;;;9.20;2.05;;;;;;;;;;4961138;28;21115;-79
2024/02/27 01:33:33;;;;;;;9.82;2.08;;;;;;;;;;4979232;28;20026;-79
2024/02/27 01:36:00;;;;;;;9.50;2.35;;;;;;;;;;4960772;28;20026;-79
2024/02/27 01:38:30;;;;;;;8.90;1.85;;;;;;;;;;4965780;28;20050;-79
2024/02/27 01:40:56;;;;;;;8.23;1.52;;;;;;;;;;4960173;28;20486;-80
2024/02/27 01:43:24;;;;;;;7.85;1.70;;;;;;;;;;4980195;28;20501;-80
2024/02/27 01:45:52;;;;;;;8.90;1.70;;;;;;;;;;4975717;28;20049;-80
2024/02/27 01:48:20;;;;;;;9.80;1.73;;;;;;;;;;4963436;28;20365;-79
2024/02/27 01:50:46;;;;;;;6.53;1.52;;;;;;;;;;4961935;28;20072;-79
2024/02/27 01:53:15;;;;;;;9.15;1.90;;;;;;;;;;4966977;28;20034;-79
2024/02/27 01:55:43;;;;;;;9.40;1.40;;;;;;;;;;4964765;28;20029;-79
2024/02/27 01:58:11;;;;;;;8.40;1.60;;;;;;;;;;4960973;28;20120;-79
2024/02/27 02:00:38;;;;;;;9.27;1.60;;;;;;;;;;4965936;28;20034;-80
2024/02/27 02:03:06;;;;;;;8.65;1.60;;;;;;;;;;4979683;28;22636;-78
2024/02/27 02:05:34;;;;;;;7.82;1.55;;;;;;;;;;4965532;28;20045;-79
2024/02/27 02:08:00;;;;;;;8.85;1.50;;;;;;;;;;4978778;28;20038;-79
2024/02/27 02:10:48;;;;;;;7.60;1.20;;;;;;;;;;4980637;28;20688;-79
2024/02/27 02:13:14;;;;;;;;;;;;;;;;;;4962958;28;20035;-79
2024/02/27 02:15:42;;;;;;;7.85;1.65;;;;;;;;;;4963553;28;19913;-80
2024/02/27 02:18:09;;;;;;;8.85;1.70;;;;;;;;;;4975592;28;20123;-79
2024/02/27 02:20:35;;;;;;;9.27;1.60;;;;;;;;;;4960545;28;20038;-79
2024/02/27 02:23:02;;;;;;;8.07;1.75;;;;;;;;;;4963835;28;20041;-79
2024/02/27 02:25:31;;;;;;;9.77;1.80;;;;;;;;;;4982611;28;20014;-79
2024/02/27 02:27:59;;;;;;;7.28;1.40;;;;;;;;;;4961322;28;20682;-79
2024/02/27 02:30:27;;;;;;;6.85;1.23;;;;;;;;;;4982594;28;20109;-79
2024/02/27 02:32:54;;;;;;;8.70;1.60;;;;;;;;;;4963475;28;20069;-79
2024/02/27 02:35:20;;;;;;;7.90;1.48;;;;;;;;;;4977779;28;20019;-80
2024/02/27 02:37:49;;;;;;;8.38;1.50;;;;;;;;;;4959374;28;20052;-79
2024/02/27 02:40:19;;;;;;;8.57;1.58;;;;;;;;;;4977486;28;20811;-79
2024/02/27 02:42:47;;;;;;;8.00;1.50;;;;;;;;;;4974691;28;20065;-79
2024/02/27 02:45:15;;;;;;;7.97;1.50;;;;;;;;;;4966557;28;20022;-79
2024/02/27 02:47:41;;;;;;;6.95;1.42;;;;;;;;;;4950084;28;20145;-78
2024/02/27 02:50:08;;;;;;;7.18;1.52;;;;;;;;;;4975000;28;20087;-79
2024/02/27 02:52:34;;;;;;;8.90;1.60;;;;;;;;;;4975866;28;20041;-79
2024/02/27 02:55:02;;;;;;;9.98;2.15;;;;;;;;;;4958521;28;20033;-81
2024/02/27 02:57:29;;;;;;;8.40;1.98;;;;;;;;;;4963910;28;20036;-80
2024/02/27 02:59:55;;;;;;;9.73;2.20;;;;;;;;;;4960156;28;20121;-79
2024/02/27 03:02:23;;;;;;;7.82;1.67;;;;;;;;;;4981428;28;20022;-79
2024/02/27 03:04:49;;;;;;;10.63;1.80;;;;;;;;;;4961412;28;20073;-79
2024/02/27 03:07:16;;;;;;;7.00;1.48;;;;;;;;;;4962461;28;20033;-79
2024/02/27 03:09:43;;;;;;;7.65;1.48;;;;;;;;;;4974517;28;20294;-79
2024/02/27 03:12:12;;;;;;;7.28;1.40;;;;;;;;;;4979470;28;20133;-79
2024/02/27 03:14:45;;;;;;;8.50;1.08;;;;;;;;;;4979287;28;20030;-80
2024/02/27 03:17:12;;;;;;;8.10;1.30;;;;;;;;;;4958809;28;20026;-80
2024/02/27 03:19:39;;;;;;;;;;;;;;;;;;4962441;28;20062;-79
2024/02/27 03:22:08;;;;;;;6.35;1.33;;;;;;;;;;4980072;28;19968;-79
2024/02/27 03:24:34;;;;;;;6.32;1.13;;;;;;;;;;4978248;28;20033;-79
2024/02/27 03:27:00;;;;;;;8.10;1.42;;;;;;;;;;4959235;28;20068;-79
2024/02/27 03:29:27;;;;;;;7.30;1.50;;;;;;;;;;4980692;28;20061;-79
2024/02/27 03:31:55;;;;;;;8.05;1.45;;;;;;;;;;4976855;28;20034;-81
2024/02/27 03:34:21;;;;;;;8.52;1.80;;;;;;;;;;4984057;28;20026;-81
2024/02/27 03:36:49;;;;;;;7.28;1.35;;;;;;;;;;4980873;28;20091;-79
2024/02/27 03:39:15;;;;;;;6.05;1.70;;;;;;;;;;4982093;28;20026;-79
2024/02/27 03:41:41;;;;;;;6.72;1.58;;;;;;;;;;4964747;28;20860;-79
2024/02/27 03:44:07;;;;;;;7.75;1.65;;;;;;;;;;4966953;28;20073;-79
2024/02/27 03:46:33;;;;;;;9.00;1.80;;;;;;;;;;4969482;28;20052;-80
2024/02/27 03:49:00;;;;;;;8.75;2.08;;;;;;;;;;4981448;28;20050;-79
2024/02/27 03:51:27;;;;;;;7.68;1.90;;;;;;;;;;4981503;28;20146;-79
2024/02/27 03:53:54;;;;;;;8.02;1.85;;;;;;;;;;4963701;28;20609;-79
2024/02/27 03:56:22;;;;;;;9.07;1.92;;;;;;;;;;4967817;28;20872;-81
2024/02/27 03:58:48;;;;;;;7.68;1.90;;;;;;;;;;4967826;28;20030;-80
2024/02/27 04:01:18;;;;;;;10.88;1.92;;;;;;;;;;4968040;28;20030;-80
2024/02/27 04:03:45;;;;;;;9.48;2.08;;;;;;;;;;4986983;28;20033;-79
2024/02/27 04:06:14;;;;;;;8.48;1.83;;;;;;;;;;4954903;28;20054;-80
2024/02/27 04:08:41;;;;;;;6.35;1.70;;;;;;;;;;4982673;28;20052;-80
2024/02/27 04:11:10;;;;;;;8.93;1.92;;;;;;;;;;4978935;28;20033;-82
2024/02/27 04:13:37;;;;;;;7.90;1.80;;;;;;;;;;4981000;28;20533;-79
2024/02/27 04:16:07;;;;;;;10.77;1.83;;;;;;;;;;4965237;28;20042;-79
2024/02/27 04:18:44;;;;;;;8.57;1.92;;;;;;;;;;4963908;28;20034;-79
2024/02/27 04:21:16;;;;;;;8.30;1.90;;;;;;;;;;4967651;28;20057;-80
2024/02/27 04:23:43;;;;;;;7.80;1.77;;;;;;;;;;4962992;28;20136;-82
2024/02/27 04:26:09;;;;;;;8.70;1.90;;;;;;;;;;4980084;28;20034;-81
2024/02/27 04:28:36;;;;;;;7.18;1.75;;;;;;;;;;4963360;28;20486;-80
2024/02/27 04:31:02;;;;;;;6.80;1.67;;;;;;;;;;4979003;28;20022;-81
2024/02/27 04:33:29;;;;;;;10.07;2.38;;;;;;;;;;4980684;28;20607;-81
2024/02/27 04:35:57;;;;;;;9.15;2.20;;;;;;;;;;4978792;28;20111;-79
2024/02/27 04:38:25;;;;;;;8.32;1.80;;;;;;;;;;4965805;28;20109;-80
2024/02/27 04:40:52;;;;;;;6.70;1.52;;;;;;;;;;4979629;28;20673;-79
2024/02/27 04:43:21;;;;;;;7.82;1.75;;;;;;;;;;4979461;28;20076;-80
2024/02/27 04:45:47;;;;;;;7.75;1.80;;;;;;;;;;4963500;28;20691;-79
2024/02/27 04:48:15;;;;;;;7.88;1.90;;;;;;;;;;4965193;28;20107;-79
2024/02/27 04:50:41;;;;;;;7.88;1.60;;;;;;;;;;4982477;28;20100;-78
2024/02/27 04:53:07;;;;;;;6.07;1.30;;;;;;;;;;4979738;28;20045;-79
2024/02/27 04:55:35;;;;;;;6.57;1.25;;;;;;;;;;4981275;28;20022;-79
2024/02/27 04:58:01;;;;;;;5.85;1.20;;;;;;;;;;4975371;28;20037;-78
2024/02/27 05:00:27;;;;;;;4.72;1.15;;;;;;;;;;4978545;28;20911;-80
2024/02/27 05:02:54;;;;;;;5.00;1.30;;;;;;;;;;4946343;28;20068;-78
2024/02/27 05:05:20;;;;;;;5.32;1.20;;;;;;;;;;4987031;28;20083;-79
2024/02/27 05:07:48;;;;;;;7.65;1.50;;;;;;;;;;4965783;28;20621;-78
2024/02/27 05:10:14;;;;;;;6.43;1.23;;;;;;;;;;4981834;28;20049;-77
2024/02/27 05:12:42;;;;;;;6.65;1.48;;;;;;;;;;4966998;28;20092;-78
2024/02/27 05:15:09;;;;;;;8.73;1.60;;;;;;;;;;4978738;28;20390;-79
2024/02/27 05:17:37;;;;;;;6.20;1.30;;;;;;;;;;4977391;28;20050;-79
2024/02/27 05:20:06;;;;;;;6.65;1.40;;;;;;;;;;4962123;28;20026;-79
2024/02/27 05:22:34;;;;;;;9.57;1.38;;;;;;;;;;4968585;28;20068;-79
2024/02/27 05:25:02;;;;;;;6.28;1.45;;;;;;;;;;4981700;28;20619;-80
2024/02/27 05:27:29;;;;;;;6.68;1.42;;;;;;;;;;4985488;28;20034;-81
2024/02/27 05:29:55;;;;;;;6.10;1.40;;;;;;;;;;4978849;28;20060;-80
2024/02/27 05:32:21;;;;;;;;;;;;;;;;;;4982991;28;20026;-81
2024/02/27 05:34:47;;;;;;;9.88;2.65;;;;;;;;;;4961212;28;19921;-80
2024/02/27 05:37:15;;;;;;;11.15;2.72;;;;;;;;;;4967507;28;20030;-80
2024/02/27 05:39:41;;;;;;;7.22;1.95;;;;;;;;;;4963504;28;20034;-80
2024/02/27 05:42:09;;;;;;;5.85;1.50;;;;;;;;;;4987631;28;20038;-80
2024/02/27 05:44:36;;;;;;;6.22;1.70;;;;;;;;;;4968296;28;20026;-80
2024/02/27 05:47:04;;;;;;;6.68;1.77;;;;;;;;;;4961240;28;20045;-80
2024/02/27 05:49:32;;;;;;;6.47;1.40;;;;;;;;;;4976507;28;20757;-80
2024/02/27 05:51:59;;;;;;;5.70;1.45;;;;;;;;;;4981218;28;20119;-80
2024/02/27 05:54:27;;;;;;;6.15;1.35;;;;;;;;;;4979458;28;20034;-80
2024/02/27 05:56:54;;;;;;;6.68;1.50;;;;;;;;;;4967418;28;20030;-80
2024/02/27 05:59:22;;;;;;;7.95;1.65;;;;;;;;;;4982473;28;20022;-80
2024/02/27 06:01:48;;;;;;;6.80;1.55;;;;;;;;;;4977348;28;20491;-80
2024/02/27 06:04:14;;;;;;;6.60;1.33;;;;;;;;;;4965251;28;20034;-80
2024/02/27 06:06:42;;;;;;;5.45;1.40;;;;;;;;;;4979648;28;20045;-80
2024/02/27 06:09:09;;;;;;;6.13;1.55;;;;;;;;;;4961244;28;20057;-80
2024/02/27 06:11:35;;;;;;;6.00;1.40;;;;;;;;;;4987233;28;20095;-80
2024/02/27 06:14:04;;;;;;;5.55;1.05;;;;;;;;;;4989530;28;20026;-80
2024/02/27 06:16:30;;;;;;;6.53;1.20;;;;;;;;;;4968948;28;20042;-80
2024/02/27 06:18:57;;;;;;;5.65;1.00;;;;;;;;;;4988878;28;20113;-81
2024/02/27 06:24:09;;;;;;;6.20;1.00;;;;;;;;;;4980805;28;20561;-78
2024/02/27 06:26:35;;;;;;;4.70;0.98;;;;;;;;;;4983366;28;20038;-78
2024/02/27 06:29:02;;;;;;;5.82;1.00;;;;;;;;;;4968290;28;20092;-78
2024/02/27 06:31:30;;;;;;;2.97;0.77;;;;;;;;;;4970824;28;20104;-78
2024/02/27 06:33:57;;;;;;;2.60;0.98;;;;;;;;;;4979302;28;20037;-78
2024/02/27 06:36:23;;;;;;;2.42;0.90;;;;;;;;;;4984138;28;20050;-78
2024/02/27 06:38:50;;;;;;;4.43;1.10;;;;;;;;;;4964075;28;20593;-78
2024/02/27 06:41:18;;;;;;;4.72;0.90;;;;;;;;;;4962625;28;20060;-80
2024/02/27 06:43:45;;;;;;;5.00;0.90;;;;;;;;;;4984588;28;20049;-80
2024/02/27 06:46:16;;;;;;;4.45;1.10;;;;;;;;;;4985281;28;20065;-78
2024/02/27 06:48:42;;;;;;;3.47;0.95;;;;;;;;;;4968002;28;20030;-80
2024/02/27 06:51:10;;;;;;;3.42;0.88;;;;;;;;;;4966493;28;20038;-79
2024/02/27 06:53:37;;;;;;;4.78;0.70;;;;;;;;;;4979721;28;20109;-79
2024/02/27 06:56:03;;;;;;;3.67;0.90;;;;;;;;;;4982780;28;20030;-79
2024/02/27 06:58:29;;;;;;;;;;;;;;;;;;4967620;28;20034;-79
2024/02/27 07:00:59;;;;;;;4.95;0.90;;;;;;;;;;4966612;28;20523;-81
2024/02/27 07:03:27;;;;;;;3.80;0.80;;;;;;;;;;4986101;28;20498;-78
2024/02/27 07:05:53;;;;;;;6.40;0.73;;;;;;;;;;4965607;28;20125;-80
2024/02/27 07:08:19;;;;;;;5.45;0.63;;;;;;;;;;4971237;28;20034;-80
2024/02/27 07:10:48;;;;;;;2.40;0.52;;;;;;;;;;4990336;28;20538;-81
2024/02/27 07:13:15;;;;;;;4.20;1.02;;;;;;;;;;4976327;28;20193;-79
2024/02/27 07:15:43;;;;;;;4.47;1.00;;;;;;;;;;4980898;28;20025;-79
2024/02/27 07:18:11;;;;;;;5.35;1.20;;;;;;;;;;4992434;28;20030;-79
2024/02/27 07:20:39;;;;;;;3.50;0.80;;;;;;;;;;4996157;28;20537;-79
2024/02/27 07:23:07;;;;;;;4.68;0.82;;;;;;;;;;4995277;28;20036;-81
2024/02/27 07:25:33;;;;;;;3.00;0.82;;;;;;;;;;4978959;28;20036;-81
2024/02/27 07:27:59;;;;;;;3.53;1.08;;;;;;;;;;4989110;28;20073;-79
2024/02/27 07:30:27;;;;;;;7.20;1.30;;;;;;;;;;4976530;28;20093;-80
2024/02/27 07:32:55;;;;;;;4.93;1.40;;;;;;;;;;4988671;28;20037;-81
2024/02/27 07:35:23;;;;;;;5.38;1.38;;;;;;;;;;4978514;28;20100;-80
2024/02/27 07:37:51;;;;;;;5.18;1.58;;;;;;;;;;4988665;28;20022;-80
2024/02/27 07:40:18;;;;;;;3.67;1.40;;;;;;;;;;4972444;28;20041;-80
2024/02/27 07:42:45;;;;;;;4.38;1.08;;;;;;;;;;4989608;28;20042;-79
2024/02/27 07:45:17;;;;;;;3.67;0.90;;;;;;;;;;4984214;28;20117;-81
2024/02/27 07:47:45;;;;;;;3.60;1.10;;;;;;;;;;4987150;28;20050;-80
2024/02/27 07:50:11;;;;;;;11.43;5.80;;;;;;;;;;4983585;28;20104;-80
2024/02/27 07:52:37;;;;;;;7.60;3.47;;;;;;;;;;4973171;28;20076;-80
2024/02/27 07:55:04;;;;;;;7.55;2.58;;;;;;;;;;4969730;28;20018;-81
2024/02/27 07:57:31;;;;;;;10.13;3.40;;;;;;;;;;4986306;28;20026;-81
2024/02/27 07:59:58;;;;;;;10.02;3.30;;;;;;;;;;4980478;28;20088;-81
2024/02/27 08:02:25;;;;;;;7.45;3.13;;;;;;;;;;4985785;28;20030;-81
2024/02/27 08:04:52;;;;;;;8.80;2.80;;;;;;;;;;4969110;28;20030;-81
2024/02/27 08:07:18;;;;;;;11.55;3.90;;;;;;;;;;4971938;28;20030;-80
2024/02/27 08:09:45;;;;;;;6.90;2.45;;;;;;;;;;4964692;28;20046;-80
2024/02/27 08:12:12;;;;;;;7.45;2.13;;;;;;;;;;4960402;28;20049;-78
2024/02/27 08:14:42;;;;;;;7.43;2.20;;;;;;;;;;4978045;28;20110;-81
2024/02/27 08:17:10;;;;;;;7.22;2.00;;;;;;;;;;4980565;28;20028;-79
2024/02/27 08:19:39;;;;;;;7.38;2.53;;;;;;;;;;4981272;28;20034;-78
2024/02/27 08:22:06;;;;;;;6.65;2.28;;;;;;;;;;4968632;28;20096;-80
2024/02/27 08:24:35;;;;;;;4.78;1.55;;;;;;;;;;4986333;28;20040;-81
2024/02/27 08:27:01;;;;;;;5.22;1.63;;;;;;;;;;4967874;28;20026;-81
2024/02/27 08:29:27;;;;;;;5.22;1.77;;;;;;;;;;4985968;28;20060;-79
2024/02/27 08:31:56;;;;;;;4.28;1.48;;;;;;;;;;4964167;28;20569;-78
2024/02/27 08:34:25;;;;;;;5.60;1.58;;;;;;;;;;4967781;28;20023;-78
2024/02/27 08:36:51;;;;;;;4.63;1.30;;;;;;;;;;4965626;28;20018;-79
2024/02/27 08:39:17;;;;;;;4.57;1.30;;;;;;;;;;4967787;28;20038;-78
2024/02/27 08:41:46;;;;;;;4.35;1.10;;;;;;;;;;4964144;28;20133;-80
2024/02/27 08:44:13;;;;;;;5.13;1.20;;;;;;;;;;4966901;28;20050;-78
2024/02/27 08:46:40;;;;;;;8.18;2.30;;;;;;;;;;4965863;28;20026;-79
2024/02/27 08:49:07;;;;;;;5.35;1.77;;;;;;;;;;4961458;28;20041;-79
2024/02/27 08:51:33;;;;;;;5.38;1.33;;;;;;;;;;4964225;28;20038;-79
2024/02/27 08:54:00;;;;;;;5.95;1.40;;;;;;;;;;4968574;28;20030;-79
2024/02/27 08:56:26;;;;;;;5.38;1.42;;;;;;;;;;4965131;28;20026;-79
2024/02/27 08:58:53;;;;;;;7.13;2.00;;;;;;;;;;4979988;28;20065;-79
2024/02/27 09:01:19;;;;;;;9.18;2.20;;;;;;;;;;4984199;28;20026;-79
2024/02/27 09:03:46;;;;;;;5.68;1.70;;;;;;;;;;4965411;28;20458;-79
2024/02/27 09:06:13;;;;;;;5.53;1.80;;;;;;;;;;4964843;28;20093;-78
2024/02/27 09:08:41;;;;;;;6.93;1.83;;;;;;;;;;4960371;28;20126;-78
2024/02/27 09:11:07;;;;;;;5.82;1.92;;;;;;;;;;4962335;28;20042;-80
2024/02/27 09:13:34;;;;;;;5.18;1.60;;;;;;;;;;4958816;28;20042;-78
2024/02/27 09:16:01;;;;;;;6.82;2.17;;;;;;;;;;4961602;28;20206;-77
2024/02/27 09:18:28;;;;;;;7.20;2.40;;;;;;;;;;4959906;28;20027;-78
2024/02/27 09:20:55;;;;;;;8.85;2.40;;;;;;;;;;4961911;28;20638;-78
2024/02/27 09:23:22;;;;;;;12.38;2.63;;;;;;;;;;4964142;28;20490;-80
2024/02/27 09:25:54;;;;;;;7.32;1.98;;;;;;;;;;4962524;28;20034;-79
2024/02/27 09:28:29;;;;;;;6.80;1.85;;;;;;;;;;4969584;28;20136;-81
2024/02/27 09:30:59;;;;;;;7.93;1.98;;;;;;;;;;4961260;28;20090;-80
2024/02/27 09:33:25;;;;;;;8.88;2.60;;;;;;;;;;4963070;28;20580;-81
2024/02/27 09:35:52;;;;;;;8.05;2.35;;;;;;;;;;4959416;28;20554;-81
2024/02/27 09:38:18;;;;;;;8.48;1.80;;;;;;;;;;4963360;28;20027;-81
2024/02/27 09:40:45;;;;;;;8.57;2.17;;;;;;;;;;4965225;28;20818;-81
2024/02/27 09:43:21;;;;;;;7.78;2.10;;;;;;;;;;4967429;28;20053;-83
2024/02/27 09:45:47;;;;;;;7.53;2.50;;;;;;;;;;4960363;28;20089;-84
2024/02/27 09:48:13;;;;;;;;;;;;;;;;;;4950540;28;20687;-80
2024/02/27 09:50:41;;;;;;;8.07;2.88;;;;;;;;;;4957657;28;19914;-81
2024/02/27 09:53:09;;;;;;;13.65;4.63;;;;;;;;;;4964896;28;20092;-81
2024/02/27 09:55:36;;;;;;;8.68;3.00;;;;;;;;;;4962598;28;20061;-81
2024/02/27 09:58:03;;;;;;;9.90;2.40;;;;;;;;;;4966734;28;20034;-81
2024/02/27 10:00:29;;;;;;;8.52;2.30;;;;;;;;;;4968712;28;20046;-81
2024/02/27 10:02:57;;;;;;;;;;;;;;;;;;4966455;28;20063;-81
2024/02/27 10:05:27;;;;;;;10.75;3.20;;;;;;;;;;4968632;28;19981;-81
2024/02/27 10:07:53;;;;;;;12.23;3.15;;;;;;;;;;4964353;28;20057;-81
2024/02/27 10:10:21;;;;;;;10.73;3.80;;;;;;;;;;4977179;28;20114;-81
2024/02/27 10:12:48;;;;;;;13.80;5.20;;;;;;;;;;4962833;28;20049;-82
2024/02/27 10:15:15;;;;;;;10.57;4.35;;;;;;;;;;4967951;28;20034;-82
2024/02/27 10:17:43;;;;;;;10.80;3.35;;;;;;;;;;4981864;28;20041;-82
2024/02/27 10:20:14;;;;;;;12.13;4.90;;;;;;;;;;4967575;28;20030;-82
2024/02/27 10:22:41;;;;;;;10.63;3.97;;;;;;;;;;4968567;28;20042;-83
2024/02/27 10:25:11;;;;;;;11.95;3.90;;;;;;;;;;4946655;28;20176;-82
2024/02/27 10:27:42;;;;;;;11.70;3.80;;;;;;;;;;4984670;28;20048;-82
2024/02/27 10:30:11;;;;;;;10.45;4.07;;;;;;;;;;4982700;28;20841;-82
2024/02/27 10:32:42;;;;;;;12.02;4.47;;;;;;;;;;4966842;28;20038;-82
2024/02/27 10:35:09;;;;;;;11.98;4.20;;;;;;;;;;4982208;28;20087;-81
2024/02/27 10:37:36;;;;;;;11.05;4.28;;;;;;;;;;4965899;28;20089;-82
2024/02/27 10:40:06;;;;;;;9.15;2.38;;;;;;;;;;4977492;28;20044;-81
2024/02/27 10:42:32;;;;;;;9.05;2.95;;;;;;;;;;4970792;28;20042;-81
2024/02/27 10:45:00;;;;;;;10.07;3.20;;;;;;;;;;4963494;28;20125;-83
2024/02/27 10:47:27;;;;;;;9.15;2.20;;;;;;;;;;4967311;28;20133;-82
2024/02/27 10:49:55;;;;;;;7.85;2.55;;;;;;;;;;4963889;28;20030;-81
2024/02/27 10:52:28;;;;;;;8.80;2.60;;;;;;;;;;4967023;28;20038;-84
2024/02/27 10:54:55;;;;;;;6.20;1.90;;;;;;;;;;4973053;28;20038;-82
2024/02/27 10:57:25;;;;;;;9.43;1.70;;;;;;;;;;4983907;28;20053;-82
2024/02/27 10:59:55;;;;;;;6.65;1.70;;;;;;;;;;4983137;28;20031;-81
2024/02/27 11:02:28;;;;;;;8.00;1.90;;;;;;;;;;4983117;28;20478;-82
2024/02/27 11:04:55;;;;;;;6.45;1.65;;;;;;;;;;4963807;28;20046;-82
2024/02/27 11:07:22;;;;;;;9.82;1.77;;;;;;;;;;4968786;28;20026;-82
2024/02/27 11:09:51;;;;;;;7.70;2.08;;;;;;;;;;4983068;28;20099;-82
2024/02/27 11:12:20;;;;;;;8.60;2.10;;;;;;;;;;4971267;28;20096;-82
2024/02/27 11:14:53;;;;;;;6.53;1.55;;;;;;;;;;4968272;28;20679;-82
2024/02/27 11:17:22;;;;;;;6.65;1.80;;;;;;;;;;4970963;28;20022;-83
2024/02/27 11:19:52;;;;;;;8.68;2.38;;;;;;;;;;4966946;28;20036;-84
2024/02/27 11:22:20;;;;;;;8.43;1.92;;;;;;;;;;4954983;28;20030;-84
2024/02/27 11:24:46;;;;;;;6.18;2.05;;;;;;;;;;4953750;28;20044;-83
2024/02/27 11:27:20;;;;;;;9.65;2.60;;;;;;;;;;4978536;28;20040;-83
2024/02/27 11:29:48;;;;;;;8.00;2.38;;;;;;;;;;4998224;28;20040;-83
2024/02/27 11:32:16;;;;;;;8.98;3.22;;;;;;;;;;4974832;28;20140;-83
2024/02/27 11:34:44;;;;;;;9.27;3.08;;;;;;;;;;4992701;28;20038;-84
2024/02/27 11:37:14;;;;;;;8.15;2.80;;;;;;;;;;4997643;28;20045;-84
2024/02/27 11:39:43;;;;;;;14.27;2.55;;;;;;;;;;4999981;28;20030;-84
2024/02/27 11:42:25;;;;;;;13.93;2.60;;;;;;;;;;4976073;28;20169;-83
2024/02/27 11:45:11;;;;;;;7.25;2.30;;;;;;;;;;4958234;28;20034;-84
2024/02/27 11:47:54;;;;;;;7.13;2.70;;;;;;;;;;4977349;28;20078;-83
2024/02/27 11:50:37;;;;;;;6.40;1.80;;;;;;;;;;4984466;28;20026;-84
2024/02/27 11:53:21;;;;;;;4.65;1.30;;;;;;;;;;4964053;28;20034;-83
2024/02/27 11:55:48;;;;;;;5.57;1.60;;;;;;;;;;4971414;28;20046;-81
2024/02/27 11:58:16;;;;;;;7.55;1.65;;;;;;;;;;4969880;28;20433;-82
2024/02/27 12:00:46;;;;;;;7.18;1.88;;;;;;;;;;4981799;28;20141;-82
2024/02/27 12:03:13;;;;;;;4.50;1.23;;;;;;;;;;4971265;28;20117;-82
2024/02/27 12:05:49;;;;;;;5.13;1.20;;;;;;;;;;4987608;28;20066;-82
2024/02/27 12:08:16;;;;;;;5.63;1.40;;;;;;;;;;4970449;28;20041;-83
2024/02/27 12:10:46;;;;;;;6.05;1.63;;;;;;;;;;4970416;28;20033;-82
2024/02/27 12:13:14;;;;;;;8.00;2.70;;;;;;;;;;4955738;28;20042;-82
2024/02/27 12:15:40;;;;;;;8.48;2.28;;;;;;;;;;4987445;28;20898;-82
2024/02/27 12:18:06;;;;;;;8.75;2.40;;;;;;;;;;4953440;28;20647;-81
2024/02/27 12:20:32;;;;;;;6.30;1.73;;;;;;;;;;4984066;28;20037;-82
2024/02/27 12:22:59;;;;;;;10.07;1.85;;;;;;;;;;4985096;28;20090;-82
2024/02/27 12:25:26;;;;;;;5.43;1.40;;;;;;;;;;4970526;28;20119;-83
2024/02/27 12:27:55;;;;;;;8.63;1.70;;;;;;;;;;4987121;28;20143;-82
2024/02/27 12:30:22;;;;;;;5.68;1.40;;;;;;;;;;4969082;28;20030;-82
2024/02/27 12:32:49;;;;;;;5.75;1.38;;;;;;;;;;4981172;28;20042;-81
2024/02/27 12:35:20;;;;;;;5.88;1.50;;;;;;;;;;4972960;28;20026;-83
2024/02/27 12:37:55;;;;;;;9.75;1.55;;;;;;;;;;4982818;28;20041;-83
2024/02/27 12:40:22;;;;;;;5.20;1.20;;;;;;;;;;4985258;28;20061;-83
2024/02/27 12:42:50;;;;;;;4.50;1.27;;;;;;;;;;4965165;28;20046;-82
2024/02/27 12:45:17;;;;;;;7.50;1.35;;;;;;;;;;4973037;28;20675;-83
2024/02/27 12:47:47;;;;;;;9.50;1.40;;;;;;;;;;4986684;28;20041;-83
2024/02/27 12:50:33;;;;;;;3.60;1.10;;;;;;;;;;4972430;28;20034;-83
2024/02/27 12:52:59;;;;;;;8.97;0.97;;;;;;;;;;4982430;28;20038;-84
2024/02/27 12:55:26;;;;;;;9.75;1.67;;;;;;;;;;4970089;28;20034;-84
2024/02/27 12:57:53;;;;;;;7.22;1.60;;;;;;;;;;4967763;28;20558;-84
2024/02/27 13:00:21;;;;;;;6.85;1.67;;;;;;;;;;4970257;28;20513;-82
2024/02/27 13:02:55;;;;;;;5.25;1.30;;;;;;;;;;4968007;28;20790;-82
2024/02/27 13:05:24;;;;;;;5.85;1.20;;;;;;;;;;4987404;28;20056;-83
2024/02/27 13:07:51;;;;;;;6.57;1.00;;;;;;;;;;4980081;28;20142;-82
2024/02/27 13:10:20;;;;;;;4.88;1.20;;;;;;;;;;4986541;28;20053;-85
2024/02/27 13:12:47;;;;;;;4.15;1.10;;;;;;;;;;4988412;28;20080;-83
2024/02/27 13:15:15;;;;;;;6.20;1.33;;;;;;;;;;4990669;28;20026;-83
2024/02/27 13:17:41;;;;;;;4.97;1.00;;;;;;;;;;4972213;28;20030;-80
2024/02/27 13:20:08;;;;;;;4.93;1.30;;;;;;;;;;4968214;28;20041;-82
2024/02/27 13:22:37;;;;;;;4.90;1.50;;;;;;;;;;4982592;28;20519;-82
2024/02/27 13:25:03;;;;;;;7.40;1.67;;;;;;;;;;4964471;28;20141;-82
2024/02/27 13:27:29;;;;;;;7.47;2.70;;;;;;;;;;4969975;28;20110;-81
2024/02/27 13:30:00;;;;;;;5.55;1.90;;;;;;;;;;4963692;28;20081;-81
2024/02/27 13:32:27;;;;;;;5.55;1.40;;;;;;;;;;4963477;28;20033;-82
2024/02/27 13:34:53;;;;;;;9.82;3.35;;;;;;;;;;4979718;28;20034;-81
2024/02/27 13:37:19;;;;;;;11.30;7.85;;;;;;;;;;4985537;28;20058;-83
2024/02/27 13:39:46;;;;;;;11.98;7.63;;;;;;;;;;4967285;28;20054;-82
2024/02/27 13:42:13;;;;;;;29.52;23.88;;;;;;;;;;4967270;28;20121;-82
2024/02/27 13:44:40;;;;;;;9.68;4.60;;;;;;;;;;4965271;28;20112;-82
2024/02/27 13:47:07;;;;;;;22.05;17.20;;;;;;;;;;4983419;28;20034;-83
2024/02/27 13:49:34;;;;;;;11.15;6.13;;;;;;;;;;4982082;28;20022;-83
2024/02/27 13:52:02;;;;;;;9.55;5.05;;;;;;;;;;4947933;28;20096;-83
2024/02/27 13:54:29;;;;;;;15.75;11.63;;;;;;;;;;4985082;28;20023;-82
2024/02/27 13:56:56;;;;;;;10.23;4.65;;;;;;;;;;4968568;28;20057;-82
2024/02/27 13:59:22;;;;;;;6.82;2.50;;;;;;;;;;4969900;28;20029;-83
2024/02/27 14:01:49;;;;;;;24.80;18.17;;;;;;;;;;4968766;28;20046;-84
2024/02/27 14:04:16;;;;;;;11.55;6.63;;;;;;;;;;4978908;28;20782;-84
2024/02/27 14:06:44;;;;;;;8.63;3.15;;;;;;;;;;4973605;28;20056;-84
2024/02/27 14:09:10;;;;;;;5.40;2.05;;;;;;;;;;4968857;28;20046;-83
2024/02/27 14:11:39;;;;;;;6.65;2.17;;;;;;;;;;4993628;28;20514;-83
2024/02/27 14:14:07;;;;;;;7.20;3.53;;;;;;;;;;4988393;28;20057;-82
2024/02/27 14:16:34;;;;;;;5.55;1.70;;;;;;;;;;4990036;28;20121;-82
2024/02/27 14:19:04;;;;;;;3.80;1.17;;;;;;;;;;4961312;28;20029;-82
2024/02/27 14:21:31;;;;;;;4.07;1.23;;;;;;;;;;4965830;28;20038;-81
2024/02/27 14:23:59;;;;;;;5.32;1.38;;;;;;;;;;4963540;28;20081;-81
2024/02/27 14:26:27;;;;;;;5.85;1.90;;;;;;;;;;4985655;28;20441;-81
2024/02/27 14:28:53;;;;;;;6.32;1.80;;;;;;;;;;4963227;28;20034;-80
2024/02/27 14:31:20;;;;;;;3.60;1.05;;;;;;;;;;4979843;28;20038;-82
2024/02/27 14:33:49;;;;;;;3.13;1.13;;;;;;;;;;4984007;28;20037;-84
2024/02/27 14:36:16;;;;;;;8.23;2.00;;;;;;;;;;4968937;28;20022;-81
2024/02/27 14:38:42;;;;;;;4.72;1.40;;;;;;;;;;4979685;28;20048;-82
2024/02/27 14:41:08;;;;;;;9.80;4.03;;;;;;;;;;4977741;28;20466;-81
2024/02/27 14:43:34;;;;;;;5.05;1.50;;;;;;;;;;4964476;28;20048;-82
2024/02/27 14:46:03;;;;;;;5.07;1.35;;;;;;;;;;4964107;28;20037;-81
2024/02/27 14:48:29;;;;;;;4.22;1.25;;;;;;;;;;4984211;28;20033;-81